Brooklyn, Wisconsin
Current Conditions -  °F | °C
As of 2:15 PM on Sunday 25 Jan 2015 (Local Time) from KEFT Reporting Station
Broken Clouds Broken Clouds  
Wind Chill: 15°   Ceiling: 5000
Heat Index: 28°   Visibility: 10mi
Dew Point: 19°   Wind: 20mph
Humidity: 69%   Direction: 30°NNE
Pressure: 29.88"   Gusts: 23mph
Location:  42.85°N, 89.37°W
Report Text: KEFT 252015Z AUTO 03017G20KT 10SM SCT021 BKN050 BKN060 M02/M07 A2988 RMK AO2
Loading
Personal Weather Stations






























Interactive Weather Map New forecast layout! Learn more

10-Day Weather Forecast

Advertisements
Track Severe Weather on mobile